createdAt,value
2018-03-28T00:00:55.129Z,5.67
2018-03-28T00:04:18.462Z,6.50
2018-03-28T00:07:41.779Z,6.30
2018-03-28T00:11:05.464Z,5.83
2018-03-28T00:14:28.783Z,4.10
2018-03-28T00:17:52.114Z,5.60
2018-03-28T00:21:15.396Z,5.73
2018-03-28T00:24:38.729Z,4.97
2018-03-28T00:28:02.823Z,5.43
2018-03-28T00:31:26.104Z,5.03
2018-03-28T00:34:49.415Z,4.90
2018-03-28T00:38:12.766Z,5.37
2018-03-28T00:41:36.089Z,4.60
2018-03-28T00:45:00.131Z,4.77
2018-03-28T00:48:23.395Z,4.53
2018-03-28T00:51:47.491Z,5.30
2018-03-28T00:55:10.849Z,5.37
2018-03-28T00:58:34.126Z,5.33
2018-03-28T01:01:57.418Z,5.87
2018-03-28T01:05:20.696Z,5.77
2018-03-28T01:08:43.992Z,6.03
2018-03-28T01:12:07.280Z,6.23
2018-03-28T01:15:30.557Z,6.00
2018-03-28T01:18:54.631Z,5.30
2018-03-28T01:22:18.787Z,6.33
2018-03-28T01:25:42.115Z,5.97
2018-03-28T01:29:05.467Z,5.77
2018-03-28T01:32:28.886Z,6.40
2018-03-28T01:35:52.171Z,6.13
2018-03-28T01:39:15.531Z,5.20
2018-03-28T01:42:38.885Z,5.90
2018-03-28T01:46:02.240Z,5.77
2018-03-28T01:49:25.509Z,5.80
2018-03-28T01:52:48.793Z,5.87
2018-03-28T01:56:12.109Z,5.70
2018-03-28T01:59:35.469Z,5.50
2018-03-28T02:02:58.803Z,5.37
2018-03-28T02:06:22.066Z,5.37
2018-03-28T02:09:45.377Z,5.40
2018-03-28T02:13:08.699Z,5.63
2018-03-28T02:16:32.038Z,5.47
2018-03-28T02:19:55.338Z,4.97
2018-03-28T02:23:19.441Z,5.43
2018-03-28T02:26:42.751Z,5.57
2018-03-28T02:30:06.077Z,4.73
2018-03-28T02:33:29.386Z,4.40
2018-03-28T02:36:52.680Z,5.00
2018-03-28T02:40:15.998Z,5.00
2018-03-28T02:43:39.302Z,4.43
2018-03-28T02:47:02.593Z,4.53
2018-03-28T02:50:25.889Z,4.57
2018-03-28T02:53:49.220Z,4.10
2018-03-28T02:57:12.590Z,4.87
2018-03-28T03:00:35.845Z,4.57
2018-03-28T03:04:00.058Z,4.50
2018-03-28T03:07:24.126Z,3.90
2018-03-28T03:10:47.458Z,3.87
2018-03-28T03:14:10.751Z,3.63
2018-03-28T03:17:34.031Z,4.07
2018-03-28T03:20:57.462Z,4.10
2018-03-28T03:24:20.816Z,3.90
2018-03-28T03:27:44.106Z,3.50
2018-03-28T03:31:07.476Z,3.33
2018-03-28T03:34:30.841Z,2.57
2018-03-28T03:37:54.219Z,2.70
2018-03-28T03:41:18.250Z,2.57
2018-03-28T03:44:41.561Z,3.07
2018-03-28T03:48:04.930Z,2.50
2018-03-28T03:51:28.190Z,2.63
2018-03-28T03:54:52.335Z,2.63
2018-03-28T03:58:15.651Z,2.20
2018-03-28T04:01:38.953Z,1.67
2018-03-28T04:05:03.007Z,2.30
2018-03-28T04:08:26.363Z,2.03
2018-03-28T04:11:49.697Z,2.30
2018-03-28T04:15:13.002Z,2.30
2018-03-28T04:18:36.378Z,1.83
2018-03-28T04:21:59.718Z,2.00
2018-03-28T04:25:23.016Z,1.77
2018-03-28T04:28:46.322Z,1.70
2018-03-28T04:32:09.618Z,2.07
2018-03-28T04:35:32.935Z,1.90
2018-03-28T04:38:56.277Z,2.13
2018-03-28T04:42:19.546Z,2.20
2018-03-28T04:45:42.824Z,2.20
2018-03-28T04:49:06.136Z,2.40
2018-03-28T04:52:29.478Z,2.33
2018-03-28T04:55:52.961Z,2.17
2018-03-28T04:59:17.064Z,2.20
2018-03-28T05:02:40.367Z,1.80
2018-03-28T05:06:03.689Z,2.00
2018-03-28T05:09:27.787Z,1.70
2018-03-28T05:12:51.063Z,2.10
2018-03-28T05:16:14.348Z,1.97
2018-03-28T05:19:37.763Z,1.80
2018-03-28T05:23:01.877Z,1.67
2018-03-28T05:26:25.154Z,1.70
2018-03-28T05:29:48.424Z,1.87
2018-03-28T05:33:11.750Z,2.50
2018-03-28T05:36:35.507Z,1.80
2018-03-28T05:39:58.814Z,2.00
2018-03-28T05:43:22.174Z,1.80
2018-03-28T05:46:45.506Z,1.90
2018-03-28T05:50:08.782Z,1.70
2018-03-28T05:53:32.084Z,1.83
2018-03-28T05:56:55.372Z,1.83
2018-03-28T06:00:18.661Z,1.73
2018-03-28T06:03:42.034Z,2.00
2018-03-28T06:07:05.402Z,2.17
2018-03-28T06:10:29.460Z,2.13
2018-03-28T06:13:52.854Z,2.10
2018-03-28T06:17:16.917Z,2.60
2018-03-28T06:20:40.326Z,2.67
2018-03-28T06:24:03.594Z,2.10
2018-03-28T06:27:26.910Z,2.43
2018-03-28T06:30:50.255Z,2.30
2018-03-28T06:34:14.364Z,2.83
2018-03-28T06:37:38.450Z,3.03
2018-03-28T06:41:01.835Z,2.57
2018-03-28T06:44:25.171Z,2.57
2018-03-28T06:47:49.296Z,3.00
2018-03-28T06:51:12.556Z,2.87
2018-03-28T06:54:35.850Z,2.70
2018-03-28T06:57:59.150Z,3.00
2018-03-28T07:01:22.544Z,2.80
2018-03-28T07:04:46.648Z,2.87
2018-03-28T07:08:09.935Z,2.90
2018-03-28T07:11:33.240Z,3.00
2018-03-28T07:14:56.620Z,2.90
2018-03-28T07:18:20.676Z,3.53
2018-03-28T07:21:44.016Z,3.60
2018-03-28T07:25:07.297Z,3.20
2018-03-28T07:28:30.606Z,3.37
2018-03-28T07:31:53.940Z,3.60
2018-03-28T07:35:17.218Z,3.77
2018-03-28T07:38:40.518Z,3.43
2018-03-28T07:42:03.845Z,3.73
2018-03-28T07:45:27.977Z,3.60
2018-03-28T07:48:51.359Z,3.60
2018-03-28T07:52:15.465Z,3.80
2018-03-28T07:55:38.750Z,3.90
2018-03-28T07:59:02.054Z,3.87
2018-03-28T08:02:25.382Z,4.30
2018-03-28T08:05:48.692Z,3.70
2018-03-28T08:09:12.119Z,3.23
2018-03-28T08:19:21.899Z,4.00
2018-03-28T08:22:45.192Z,4.60
2018-03-28T08:26:08.621Z,7.57
2018-03-28T08:32:54.833Z,7.37
2018-03-28T08:36:18.180Z,7.83
2018-03-28T08:39:41.531Z,7.87
2018-03-28T09:57:32.667Z,2.87
2018-03-28T10:01:02.105Z,2.60
2018-03-28T10:41:40.251Z,2.27
2018-03-28T11:08:45.110Z,2.23
2018-03-28T11:12:08.398Z,2.00
2018-03-28T11:29:04.642Z,1.70
2018-03-28T11:35:54.624Z,1.90
2018-03-28T11:39:17.914Z,1.83
2018-03-28T11:46:04.798Z,2.10
2018-03-28T11:49:28.217Z,2.40
2018-03-28T11:52:51.574Z,2.33
2018-03-28T11:56:14.816Z,2.43
2018-03-28T11:59:38.857Z,2.40
2018-03-28T12:03:02.141Z,2.30
2018-03-28T12:06:25.409Z,2.70
2018-03-28T12:09:48.677Z,2.63
2018-03-28T12:13:12.716Z,2.57
2018-03-28T12:16:36.012Z,2.23
2018-03-28T12:30:12.748Z,2.70
2018-03-28T12:33:36.789Z,2.70
2018-03-28T12:37:00.918Z,2.80
2018-03-28T12:40:24.972Z,2.73
2018-03-28T12:43:48.248Z,3.23
2018-03-28T12:53:58.046Z,3.13
2018-03-28T12:57:22.410Z,2.73
2018-03-28T13:00:45.336Z,3.10
2018-03-28T13:04:08.623Z,2.93
2018-03-28T13:07:32.274Z,3.13
2018-03-28T13:14:18.420Z,2.60
2018-03-28T13:17:42.471Z,3.03
2018-03-28T13:21:05.745Z,2.83
2018-03-28T13:24:29.018Z,3.60
2018-03-28T13:27:52.307Z,2.70
2018-03-28T13:31:16.631Z,2.60
2018-03-28T13:38:02.732Z,2.90
2018-03-28T13:41:26.018Z,2.70
2018-03-28T13:44:50.091Z,2.40
2018-03-28T13:48:14.156Z,2.43
2018-03-28T13:51:38.202Z,2.80
2018-03-28T13:55:01.497Z,2.50
2018-03-28T13:58:24.836Z,2.80
2018-03-28T14:01:48.918Z,2.53
2018-03-28T14:05:12.191Z,2.37
2018-03-28T14:08:36.272Z,2.40
2018-03-28T14:12:00.326Z,2.50
2018-03-28T14:15:23.640Z,2.30
2018-03-28T14:22:09.989Z,2.20
2018-03-28T14:25:33.294Z,2.23
2018-03-28T14:28:56.572Z,2.00
2018-03-28T14:32:20.610Z,2.00
2018-03-28T14:35:43.900Z,2.40
2018-03-28T14:39:07.208Z,2.10
2018-03-28T14:42:30.499Z,1.90
2018-03-28T14:45:54.539Z,2.30
2018-03-28T14:49:17.815Z,2.10
2018-03-28T14:52:41.137Z,2.10
2018-03-28T14:56:04.582Z,2.20
2018-03-28T14:59:28.622Z,2.30
2018-03-28T15:02:52.228Z,2.07
2018-03-28T15:06:15.510Z,1.80
2018-03-28T15:09:38.804Z,2.37
2018-03-28T15:13:02.085Z,1.90
2018-03-28T15:16:25.395Z,2.20
2018-03-28T15:19:49.489Z,2.13
2018-03-28T15:23:12.771Z,2.33
2018-03-28T15:33:47.393Z,1.90
2018-03-28T15:37:11.551Z,2.07
2018-03-28T15:40:38.844Z,2.23
2018-03-28T15:44:02.961Z,1.90
2018-03-28T15:47:26.526Z,2.10
2018-03-28T15:50:51.251Z,2.07
2018-03-28T15:54:14.538Z,2.10
2018-03-28T15:57:38.062Z,1.80
2018-03-28T16:01:01.416Z,2.00
2018-03-28T16:04:27.723Z,2.17
2018-03-28T16:07:51.828Z,2.20
2018-03-28T16:11:15.091Z,2.80
2018-03-28T16:14:39.211Z,2.80
2018-03-28T16:18:02.491Z,2.70
2018-03-28T16:21:25.834Z,2.20
2018-03-28T16:24:49.138Z,2.40
2018-03-28T16:28:12.487Z,2.40
2018-03-28T16:31:35.836Z,2.07
2018-03-28T16:34:59.108Z,1.90
2018-03-28T17:02:05.545Z,1.00
2018-03-28T17:05:28.943Z,1.03
2018-03-28T17:08:55.340Z,1.13
2018-03-28T17:12:18.850Z,1.13
2018-03-28T17:15:43.002Z,1.30
2018-03-28T17:19:06.315Z,1.50
2018-03-28T17:22:29.622Z,1.30
2018-03-28T17:29:17.355Z,1.13
2018-03-28T17:32:40.751Z,1.10
2018-03-28T17:36:04.848Z,1.10
2018-03-28T17:39:28.231Z,1.00
2018-03-28T17:42:51.578Z,1.00
2018-03-28T17:53:01.875Z,1.10
2018-03-28T17:56:25.952Z,1.30
2018-03-28T17:59:49.324Z,1.50
2018-03-28T18:03:12.671Z,1.37
2018-03-28T18:06:36.026Z,1.20
2018-03-28T18:09:59.376Z,1.30
2018-03-28T18:13:22.748Z,1.57
2018-03-28T18:16:46.115Z,1.63
2018-03-28T18:20:10.184Z,1.70
2018-03-28T18:23:33.571Z,1.50
2018-03-28T18:26:57.676Z,1.40
2018-03-28T18:30:21.077Z,1.70
2018-03-28T18:33:45.127Z,1.40
2018-03-28T18:37:08.497Z,1.60
2018-03-28T18:40:31.987Z,1.77
2018-03-28T18:43:55.205Z,1.60
2018-03-28T18:47:18.598Z,1.90
2018-03-28T18:50:42.712Z,1.80
2018-03-28T18:54:05.993Z,1.80
2018-03-28T18:57:29.270Z,1.83
2018-03-28T19:00:52.569Z,2.17
2018-03-28T19:04:15.937Z,2.10
2018-03-28T19:14:26.208Z,2.07
